Galesville, Wisconsin
Current Conditions -  °F | °C
As of 11:53 AM on Saturday 25 Oct 2014 (Local Time) from KLSE Reporting Station
Clear Clear  
Wind Chill: 63°   Ceiling: Unl
Heat Index: 63°   Visibility: 10mi
Dew Point: 35°   Wind: 10mph
Humidity: 35%   Direction: 310°NW
Pressure: 30.01"   Gusts: NA
Location:  44.08°N, 91.35°W
Report Text: KLSE 251653Z 31009KT 10SM CLR 17/02 A3001 RMK AO2 SLP160 T01720017
Loading
Personal Weather Stations






























Interactive Weather Map
Tropical Storm Tracking
New forecast layout! Learn more

10-Day Weather Forecast

Advertisements
Track Severe Weather on mobile